• Join FlightAware (Why Join?)
  • Login
  • US Flag 
12:56PM EST


 

Airport Tracker/Info


-or-


 

Live Flight TrackerFlight Track Log ✈ GJS3706 ✈ 29-Jun-2013 ✈ KALB - KORD

Flight Track Log - Related Links

Times and Time Zones

All times are in EDT time to prevent confusion due to time zone crossing. See the GJS3706 flight status page for this flight to view local times or setup timezone preferences in your user account.

Time Position Orientation Groundspeed Altitude Reporting Facility
EDT Latitude Longitude Course Direction KTS MPH feet Rate Location/Type
11:44AM 42.7256 -73.8108 275° West 147 169 1,200  Level Boston Center
11:45AM 42.6975 -73.8864 243° Southwest 224 258 4,100 2,082 Climbing Boston Center
11:47AM 42.7006 -73.9686 273° West 246 283 6,300 2,361 Climbing Boston Center
11:48AM 43.0244 -74.2570 276° West  Level FlightAware Approximate
11:48AM 42.7056 -74.0592 274° West 251 289 8,900  Level Boston Center
11:49AM 43.0333 -74.3928 270° West  Level FlightAware Approximate
11:49AM 42.7167 -74.1583 279° West 262 302 11,300  Level Boston Center
11:50AM 43.0364 -74.5291 275° West  Level FlightAware Approximate
11:50AM 42.7253 -74.2744 276° West 276 318 12,900  Level Boston Center
11:51AM 42.7339 -74.3878 276° West 320 368 14,300 1,600 Climbing Boston Center
11:52AM 42.7439 -74.5322 275° West 348 400 16,100 1,700 Climbing Boston Center
11:53AM 42.7519 -74.6569 275° West 360 414 17,700 1,800 Climbing Boston Center
11:54AM 42.7656 -74.8100 277° West 373 429 19,700 1,850 Climbing Boston Center
11:55AM 42.7747 -74.9547 275° West 379 436 21,400 1,700 Climbing Boston Center
11:56AM 42.7842 -75.0939 275° West 379 436 23,100 1,650 Climbing Boston Center
11:57AM 42.7953 -75.2386 276° West 379 436 24,700 1,400 Climbing Boston Center
11:58AM 42.8022 -75.3806 274° West 379 436 25,900 1,150 Climbing Boston Center
11:59AM 42.8131 -75.5253 276° West 384 442 27,000 1,050 Climbing Boston Center
12:00PM 42.8211 -75.6786 274° West 396 456 28,000 1,000 Climbing Boston Center
12:01PM 42.8314 -75.8294 275° West 402 463 29,000 1,000 Climbing Boston Center
12:02PM 42.8414 -75.9800 275° West 407 468 30,000 850 Climbing Boston Center
12:03PM 42.8508 -76.1392 275° West 407 468 30,700 700 Climbing Boston Center
12:04PM 42.8622 -76.2986 276° West 418 481 31,400 708 Climbing Boston Center
12:05PM 42.8500 -76.5333 266° West 430 495 32,600 638 Climbing Toronto Center
12:06PM 42.8794 -76.6672 287° West 440 506 32,900 720 Climbing Cleveland Center
12:07PM 42.8897 -76.8481 274° West 440 506 33,800 750 Climbing Cleveland Center
12:08PM 42.8989 -77.0119 274° West 440 506 34,400 600 Climbing Cleveland Center
12:09PM 42.9083 -77.1814 274° West 440 506 35,000 500 Climbing Cleveland Center
12:10PM 42.9172 -77.3483 274° West 440 506 35,400 450 Climbing Cleveland Center
12:11PM 42.9281 -77.5178 275° West 440 506 35,900 500 Climbing Cleveland Center
12:12PM 42.9325 -77.6850 272° West 440 506 36,400 550 Climbing Cleveland Center
12:13PM 42.9406 -77.8519 274° West 445 512 37,000 500 Climbing Cleveland Center
12:14PM 42.9489 -78.0247 274° West 445 512 37,400 450 Climbing Cleveland Center
12:15PM 42.9544 -78.1889 273° West 445 512 37,900 300 Climbing Cleveland Center
12:16PM 42.9617 -78.3506 274° West 439 505 38,000 50 Climbing Cleveland Center
12:17PM 42.9689 -78.5119 274° West 439 505 38,000  Level Cleveland Center
12:18PM 42.9758 -78.6678 274° West 433 498 38,000  Level Cleveland Center
12:19PM 42.9803 -78.8239 272° West 420 483 38,000  Level Cleveland Center
12:20PM 42.9867 -78.9769 273° West 414 476 38,000  Level Cleveland Center
12:21PM 42.9908 -79.1300 272° West 414 476 38,000  Level Cleveland Center
12:22PM 43.0072 -79.2772 279° West 403 464 38,000  Level Cleveland Center
12:23PM 43.1000 -79.4000 316° Northwest 410 472 38,000  Level Toronto Center
12:24PM 43.1667 -79.5167 308° West 410 472 38,000  Level Toronto Center
12:25PM 43.2500 -79.6333 314° West 420 483 38,000  Level Toronto Center
12:26PM 43.3333 -79.7500 315° West 420 483 38,000  Level Toronto Center
12:27PM 43.4333 -79.8833 316° Northwest 430 495 38,000  Level Toronto Center
12:28PM 43.5167 -80.0000 315° West 440 506 38,000  Level Toronto Center
12:29PM 43.6000 -80.1167 315° West 440 506 38,000  Level Toronto Center
12:30PM 43.6500 -80.2500 297° West 440 506 38,000  Level Toronto Center
12:31PM 43.6500 -80.4167 270° West 430 495 38,000  Level Toronto Center
12:32PM 43.6167 -80.5833 255° West 430 495 38,000  Level Toronto Center
12:33PM 43.5833 -80.7333 253° West 430 495 38,000  Level Toronto Center
12:34PM 43.5500 -80.9000 255° West 430 495 38,000  Level Toronto Center
12:36PM 43.4833 -81.2000 253° West 430 495 38,000  Level Toronto Center
12:37PM 43.3833 -81.3000 216° Southwest 420 483 38,000  Level Toronto Center
12:38PM 43.2833 -81.3667 206° Southwest 410 472 38,000  Level Toronto Center
12:39PM 43.1833 -81.4333 206° Southwest 420 483 38,000  Level Toronto Center
12:40PM 43.1000 -81.5500 226° Southwest 420 483 38,000  Level Toronto Center
12:41PM 43.0833 -81.7167 262° West 430 495 38,000  Level Toronto Center
12:42PM 43.0833 -81.9000 270° West 430 495 38,000  Level Toronto Center
12:43PM 43.0500 -82.0333 251° West 430 495 38,000  Level Toronto Center
12:44PM 43.0500 -82.2167 270° West 430 495 38,000  Level Toronto Center
12:45PM 43.0500 -82.3667 270° West 440 506 38,000  Level Toronto Center
12:46PM 43.0333 -82.5333 262° West 440 506 38,000  Level Toronto Center
12:47PM 43.0167 -82.7167 263° West 440 506 38,000  Level Toronto Center
12:48PM 43.0167 -82.8667 270° West 440 506 38,000  Level Toronto Center
12:49PM 43.0000 -83.0333 262° West 440 506 38,000 -100 Level Toronto Center
12:50PM 43.0000 -83.1833 270° West 430 495 37,800 -650 Descending Toronto Center
12:51PM 42.9833 -83.3667 263° West 440 506 36,700 -1,050 Descending Toronto Center
12:52PM 42.9667 -83.5333 262° West 440 506 35,700 -1,000 Descending Toronto Center
12:53PM 42.9500 -83.7167 263° West 440 506 34,700 -976 Descending Toronto Center
12:54PM 42.9531 -83.8767 272° West 442 509 33,700 -976 Descending Cleveland Center
12:55PM 42.9378 -84.0403 263° West 442 509 32,700 -836 Descending Cleveland Center
12:56PM 42.9208 -84.2122 262° West 448 516 32,000 -339 Descending Chicago Center
12:57PM 42.9050 -84.3814 263° West 452 520 32,000  Level Chicago Center
12:58PM 42.8869 -84.5511 262° West 452 520 32,000  Level Chicago Center
12:59PM 42.8697 -84.7222 262° West 455 524 32,000  Level Chicago Center
01:00PM 42.8519 -84.8919 262° West 455 524 32,000  Level Chicago Center
01:01PM 42.8342 -85.0636 262° West 457 526 32,000 -145 Level Chicago Center
01:02PM 42.8158 -85.2367 262° West 459 528 31,700 -1,355 Descending Chicago Center
01:04PM 42.7931 -85.4414 261° West 457 526 29,200 -2,226 Descending Chicago Center
01:05PM 42.7672 -85.6061 258° West 445 512 27,100 -1,984 Descending Chicago Center
01:06PM 42.7372 -85.7692 256° West 442 509 25,100 -2,081 Descending Chicago Center
01:07PM 42.7083 -85.9306 256° West 437 503 22,800 -2,129 Descending Chicago Center
01:08PM 42.6800 -86.0894 256° West 431 496 20,700 -1,355 Descending Chicago Center
01:09PM 42.6519 -86.2414 256° West 418 481 20,000 -919 Descending Chicago Center
01:10PM 42.6247 -86.3825 255° West 390 449 18,800 -1,756 Descending Chicago Center
01:11PM 42.5969 -86.5203 255° West 380 437 16,400 -2,341 Descending Chicago Center
01:12PM 42.5675 -86.6825 256° West 370 426 14,000 -2,129 Descending Chicago Center
01:13PM 42.5394 -86.8117 254° West 363 418 12,000 -1,887 Descending Chicago Center
01:14PM 42.5056 -86.9347 250° West 354 407 10,100 -968 Descending Chicago Center
01:15PM 42.4711 -87.0517 248° West 340 391 10,000 -194 Descending Chicago Center
01:16PM 42.4392 -87.1653 249° West 327 376 9,700 -484 Descending Chicago Center
01:17PM 42.4136 -87.2633 251° West 283 326 9,000 -387 Descending Chicago Center
01:18PM 42.3842 -87.3675 249° West 246 283 8,900 -677 Descending Chicago Center
01:19PM 42.3614 -87.4492 249° West 238 274 7,600 -1,258 Descending Chicago Center
01:20PM 42.3308 -87.5308 243° Southwest 247 284 6,300 -927 Descending Chicago Center
01:21PM 42.2700 -87.5294 179° South 240 276 5,700 -634 Descending Chicago Center
01:22PM 42.2047 -87.5186 173° South 237 273 5,000 -339 Descending Chicago Center
01:23PM 42.1431 -87.5042 170° South 229 264 5,000 -48 Level Chicago Center
01:24PM 42.1086 -87.4506 131° Southeast 197 227 4,900 -484 Descending Chicago Center
01:25PM 42.0794 -87.4000 128° Southeast 207 238 4,000 -435 Descending Chicago Center
01:26PM 42.0244 -87.4014 181° South 201 231 4,000  Level Chicago Center
01:27PM 41.9839 -87.4581 226° Southwest 207 238 4,000  Level Chicago Center
01:28PM 41.9792 -87.5344 265° West 226 260 4,000  Level Chicago Center
01:29PM 41.9867 -87.6094 278° West 216 249 4,000  Level Chicago Center